Santa Ana, CA (92701)

12:52 AM PDT on August 20, 2014 (GMT -0700)
MesoWest Santa Ana Fire CA US SGXWFO | Change Station
CLOSE
Current Station
Personal Weather Station
Location: Santa Ana, CA
Elevation: 109 ft
Nearby Weather Stations

Elev 109 ft 33.74 °N, 117.87 °W | Updated 58 minutes ago

Mostly Cloudy
Mostly Cloudy
69 °F
Feels Like 69 °F
N
3
Wind Variable Wind from East
Gusts 0.0 mph

Today
High -- | Low -- °F
--% Chance of Precip.
Yesterday
High -- | Low -- °F
Precip. -- in
6:16 AM 7:31 PM
Waning Crescent, 23% visible
Pressure 29.88 in
Visibility 10.0 miles
Clouds Mostly Cloudy 2300 ft
Dew Point 62 °F
Humidity 78%
Rainfall -999.00 in
Snow Depth Not available.
UV 0 out of 12
Pollen 4.80 out of 12
Ozone Good
Flu Activity Not available.
SPECI KSNA 200728Z AUTO 13005KT 10SM BKN023 22/15 A2988 RMK AO2 TSNO

More Conditions Fewer Conditions

Pressure 29.88 in
Visibility 10.0 miles
Clouds Mostly Cloudy 2300 ft
Dew Point 62 °F
Humidity 78%
Rainfall -999.00 in
Snow Depth Not available.
UV 0 out of 12
Pollen 4.80 out of 12
Ozone Good
Flu Activity Not available.
SPECI KSNA 200728Z AUTO 13005KT 10SM BKN023 22/15 A2988 RMK AO2 TSNO

More Conditions Fewer Conditions

10-Day Weather Forecast

Almanac

Astronomy

Aug. 20, 2014 Rise Set
Actual Time 6:16 AM PDT 7:31 PM PDT
Civil Twilight 5:50 AM PDT 7:57 PM PDT
Nautical Twilight 5:19 AM PDT 8:28 PM PDT
Astronomical Twilight 4:47 AM PDT 9:01 PM PDT
Moon 2:05 AM PDT 4:15 PM PDT
Length of Visible Light 14h 07m
Length of Day
13h 14m
Tomorrow will be 1m 54s shorter.
Waning Crescent, 23% of the Moon is Illuminated
Today
Waning Crescent
Aug 25
New
Sep 2
First Quarter
Sep 8
Full
Sep 15
Last Quarter

Today's Extremes

State Highs State Lows

Community

WunderPhotos

Upload Photos

1,745,592 photos uploaded!

Nearby

Air Quality

  Air Quality AQ Index Pollutant
Yesterday Good
OZONE
Current Good
OZONE
Wednesday Good
PM10
Wednesday Good
OZONE
Wednesday Good
CO
Wednesday Good
NO2

Snow Depth

Station Depth Elevation
Leavitt Lake 1 in 9400 ft
Leavitt Meadows 1 in 7200 ft
Summit Meadow 1 in 9122 ft
Monitor Pass 0 in 8350 ft
Blue Lakes 0 in 8000 ft

Earthquake Activity

City Distance Mag. Time & Date
Malibu Beach, California 51 miles 3.4 10:03 AM PDT
2014-08-15
Yucca Valley, California 89 miles 3.8 8:57 PM PDT
2014-08-14
Salton City, California 113 miles 2.6 6:58 AM PDT
2014-08-14
Ojai, California 91 miles 2.6 8:43 PM PDT
2014-08-13
Minimum magnitude displayed is 2.5.

Coastal Water Temperatures

Place Temperature
Santa Monica Pier 70.0 °F
Los Angeles, CA 66.9 °F
La Jolla, CA 73.0 °F

Nearby Weather Stations